Terminal Aerodrome Forecast
Issued by NWS

Home | Current Version | Previous Version | Text Only | Print | Product List | Glossary On
Versions: 1 2 3 4 5 6 7 8 9 10 11 12 13 14 15 16 17 18 19 20 21 22 23 24 25 26
000
FTUS43 KIND 101412 AAU
TAFHUF
TAF AMD
KHUF 101412Z 1014/1112 15003KT 5SM BR FEW020 BKN100
     FM101900 22007KT P6SM VCTS SCT040CB BKN250 WS020/32020KT
     FM102200 20006KT P6SM VCTS BKN040CB
      TEMPO 1023/1103 2SM -TSRA BR OVC020CB
     FM110600 00000KT P6SM BKN160=

USA.gov is the U.S. government's official web portal to all federal, state and local government web resources and services.